createdAt,value
2022-12-01T00:00:55.819Z,96033.00
2022-12-01T00:06:31.851Z,96027.16
2022-12-01T00:09:37.959Z,96025.82
2022-12-01T00:15:32.616Z,96021.50
2022-12-01T00:21:24.816Z,96009.74
2022-12-01T00:26:59.026Z,96018.31
2022-12-01T00:32:35.168Z,96018.56
2022-12-01T00:38:13.687Z,96013.98
2022-12-01T00:44:01.187Z,96022.59
2022-12-01T00:49:29.906Z,96014.31
2022-12-01T00:55:02.634Z,96011.34
2022-12-01T01:00:31.105Z,96015.37
2022-12-01T01:03:19.735Z,96026.09
2022-12-01T01:08:56.354Z,96011.32
2022-12-01T01:14:34.319Z,96015.90
2022-12-01T01:28:28.310Z,96035.41
2022-12-01T01:34:01.640Z,96031.66
2022-12-01T01:36:50.535Z,96030.63
2022-12-01T01:42:25.732Z,96032.73
2022-12-01T01:45:24.357Z,96040.56
2022-12-01T01:48:15.579Z,96038.09
2022-12-01T01:54:00.013Z,96038.66
2022-12-01T01:56:50.199Z,96031.40
2022-12-01T02:02:23.080Z,96034.29
2022-12-01T02:11:25.904Z,96027.27
2022-12-01T02:17:03.525Z,96028.13
2022-12-01T02:20:23.090Z,96027.08
2022-12-01T02:23:32.459Z,96032.91
2022-12-01T02:29:52.744Z,96021.17
2022-12-01T02:32:53.109Z,96018.76
2022-12-01T02:38:38.644Z,96019.79
2022-12-01T02:44:20.122Z,96011.73
2022-12-01T02:49:53.032Z,96012.33
2022-12-01T02:55:50.075Z,96005.88
2022-12-01T03:01:43.218Z,96013.17
2022-12-01T03:07:55.343Z,96015.00
2022-12-01T03:10:46.647Z,96018.80
2022-12-01T03:19:00.665Z,96015.52
2022-12-01T03:24:55.704Z,96007.45
2022-12-01T03:30:31.508Z,96015.77
2022-12-01T03:36:16.262Z,96007.01
2022-12-01T03:41:58.697Z,96001.65
2022-12-01T03:47:48.136Z,95995.69
2022-12-01T03:53:25.707Z,96000.31
2022-12-01T03:58:58.396Z,96007.59
2022-12-01T04:04:33.822Z,96011.29
2022-12-01T04:10:11.361Z,95993.57
2022-12-01T04:12:59.719Z,96009.43
2022-12-01T04:15:48.981Z,96009.31
2022-12-01T04:18:37.599Z,96005.88
2022-12-01T04:24:13.808Z,96004.01
2022-12-01T04:29:40.876Z,96011.29
2022-12-01T04:35:15.905Z,96018.23
2022-12-01T04:40:51.090Z,96023.33
2022-12-01T04:43:39.530Z,96022.72
2022-12-01T04:52:03.752Z,96028.44
2022-12-01T04:57:41.329Z,96042.11
2022-12-01T05:00:29.642Z,96035.63
2022-12-01T05:03:19.188Z,96032.10
2022-12-01T05:06:09.959Z,96039.16
2022-12-01T05:11:43.206Z,96038.26
2022-12-01T05:14:32.702Z,96037.20
2022-12-01T05:17:21.144Z,96031.83
2022-12-01T05:20:32.722Z,96034.25
2022-12-01T05:26:00.740Z,96039.65
2022-12-01T05:31:27.658Z,96042.34
2022-12-01T05:36:57.627Z,96041.30
2022-12-01T05:42:36.547Z,96043.45
2022-12-01T05:50:53.209Z,96041.91
2022-12-01T05:56:33.894Z,96037.10
2022-12-01T06:02:11.134Z,96033.86
2022-12-01T06:07:47.885Z,96038.44
2022-12-01T06:16:05.370Z,96041.12
2022-12-01T06:21:42.021Z,96041.89
2022-12-01T06:27:09.862Z,96048.83
2022-12-01T06:32:44.432Z,96050.22
2022-12-01T06:35:33.435Z,96051.06
2022-12-01T06:38:23.187Z,96060.69
2022-12-01T06:41:27.063Z,96057.75
2022-12-01T06:44:16.580Z,96064.47
2022-12-01T06:49:53.829Z,96064.70
2022-12-01T06:52:43.823Z,96073.80
2022-12-01T06:58:24.143Z,96070.86
2022-12-01T07:04:03.245Z,96077.56
2022-12-01T07:09:34.406Z,96087.47
2022-12-01T07:15:03.557Z,96089.62
2022-12-01T07:20:40.061Z,96094.70
2022-12-01T07:26:17.933Z,96087.19
2022-12-01T07:29:06.301Z,96082.06
2022-12-01T07:34:34.605Z,96091.73
2022-12-01T07:42:58.929Z,96085.03
2022-12-01T07:51:25.685Z,96094.14
2022-12-01T07:56:56.347Z,96098.96
2022-12-01T08:02:49.698Z,96093.84
2022-12-01T08:08:25.302Z,96095.98
2022-12-01T08:13:56.677Z,96090.86
2022-12-01T08:19:32.790Z,96085.54
2022-12-01T08:25:06.712Z,96086.34
2022-12-01T08:30:40.518Z,96086.77
2022-12-01T08:36:13.213Z,96088.74
2022-12-01T08:41:51.096Z,96084.69
2022-12-01T08:47:20.044Z,96088.69
2022-12-01T08:53:02.354Z,96093.28
2022-12-01T08:55:50.756Z,96098.92
2022-12-01T09:01:20.331Z,96093.77
2022-12-01T09:06:55.491Z,96097.55
2022-12-01T09:12:25.534Z,96103.45
2022-12-01T09:18:04.591Z,96105.59
2022-12-01T09:20:52.639Z,96113.92
2022-12-01T09:26:26.232Z,96118.36
2022-12-01T09:31:59.655Z,96113.02
2022-12-01T09:34:48.311Z,96118.88
2022-12-01T09:37:36.656Z,96123.47
2022-12-01T09:40:25.830Z,96123.97
2022-12-01T09:46:04.972Z,96125.47
2022-12-01T09:48:54.426Z,96118.60
2022-12-01T09:54:22.857Z,96114.74
2022-12-01T09:59:54.202Z,96119.09
2022-12-01T10:08:23.821Z,96110.26
2022-12-01T10:14:02.693Z,96107.74
2022-12-01T10:19:44.779Z,96101.53
2022-12-01T10:22:56.636Z,96100.02
2022-12-01T10:28:47.075Z,96093.19
2022-12-01T10:31:39.939Z,96090.70
2022-12-01T10:37:15.522Z,96080.88
2022-12-01T10:40:04.789Z,96082.63
2022-12-01T10:45:45.496Z,96072.63
2022-12-01T10:51:21.856Z,96071.30
2022-12-01T10:57:01.945Z,96065.08
2022-12-01T11:02:41.951Z,96059.66
2022-12-01T11:05:35.066Z,96072.00
2022-12-01T11:08:27.649Z,96063.73
2022-12-01T11:14:18.808Z,96059.64
2022-12-01T11:17:31.254Z,96065.27
2022-12-01T11:20:28.876Z,96059.87
2022-12-01T11:26:27.570Z,96057.80
2022-12-01T11:29:28.848Z,96064.42
2022-12-01T11:32:22.473Z,96061.72
2022-12-01T11:38:29.163Z,96055.12
2022-12-01T11:44:01.743Z,96058.85
2022-12-01T11:49:41.324Z,96061.25
2022-12-01T11:58:13.703Z,96061.12
2022-12-01T12:03:55.330Z,96054.59
2022-12-01T12:09:58.748Z,96058.27
2022-12-01T12:15:41.016Z,96052.64
2022-12-01T12:21:31.619Z,96054.88
2022-12-01T12:27:19.029Z,96050.22
2022-12-01T12:33:35.492Z,96049.37
2022-12-01T12:39:28.122Z,96043.33
2022-12-01T12:45:08.884Z,96041.78
2022-12-01T12:53:52.607Z,96037.09
2022-12-01T13:02:22.582Z,96035.58
2022-12-01T13:05:17.028Z,96038.37
2022-12-01T13:13:47.956Z,96042.25
2022-12-01T13:19:20.654Z,96033.78
2022-12-01T13:24:55.613Z,96033.15
2022-12-01T13:30:32.217Z,96038.71
2022-12-01T13:33:21.157Z,96024.98
2022-12-01T13:39:01.196Z,96030.42
2022-12-01T13:44:37.331Z,96023.22
2022-12-01T13:57:14.168Z,96019.23
2022-12-01T14:03:30.387Z,96017.55
2022-12-01T14:09:15.079Z,96009.39
2022-12-01T14:14:53.965Z,96011.06
2022-12-01T14:20:24.078Z,96018.48
2022-12-01T14:23:18.441Z,96015.21
2022-12-01T14:29:29.540Z,96024.02
2022-12-01T14:32:26.857Z,96022.81
2022-12-01T14:37:59.829Z,96017.45
2022-12-01T14:43:55.947Z,96028.23
2022-12-01T14:49:30.840Z,96032.48
2022-12-01T14:58:06.110Z,96027.89
2022-12-01T15:03:49.253Z,96026.26
2022-12-01T15:09:33.477Z,96026.23
2022-12-01T15:15:23.664Z,96020.30
2022-12-01T15:21:08.728Z,96018.13
2022-12-01T15:26:52.251Z,96018.07
2022-12-01T15:32:29.558Z,96026.38
2022-12-01T15:38:07.715Z,96027.48
2022-12-01T15:43:45.059Z,96024.43
2022-12-01T15:49:21.498Z,96021.69
2022-12-01T15:54:52.188Z,96025.77
2022-12-01T16:00:24.526Z,96016.94
2022-12-01T16:03:14.285Z,96020.02
2022-12-01T16:12:15.642Z,96008.53
2022-12-01T16:18:02.639Z,96006.70
2022-12-01T16:23:40.664Z,96017.98
2022-12-01T16:29:22.966Z,96014.95
2022-12-01T16:32:20.772Z,96016.52
2022-12-01T16:40:42.837Z,96012.54
2022-12-01T16:46:18.552Z,96013.75
2022-12-01T16:51:56.805Z,96016.96
2022-12-01T16:57:31.283Z,96009.91
2022-12-01T17:03:05.456Z,96023.86
2022-12-01T17:08:55.211Z,96019.31
2022-12-01T17:14:33.565Z,96023.22
2022-12-01T17:20:13.821Z,96022.73
2022-12-01T17:25:44.719Z,96022.91
2022-12-01T17:28:33.323Z,96023.41
2022-12-01T17:34:10.507Z,96022.53
2022-12-01T17:39:40.751Z,96023.03
2022-12-01T17:45:21.481Z,96030.32
2022-12-01T17:50:55.267Z,96028.16
2022-12-01T17:56:30.415Z,96029.09
2022-12-01T17:59:22.003Z,96029.73
2022-12-01T18:02:13.654Z,96025.39
2022-12-01T18:07:46.501Z,96031.75
2022-12-01T18:13:20.204Z,96033.27
2022-12-01T18:16:14.483Z,96039.08
2022-12-01T18:19:03.536Z,96037.32
2022-12-01T18:24:38.556Z,96036.80
2022-12-01T18:30:26.230Z,96036.67
2022-12-01T18:35:57.015Z,96039.39
2022-12-01T18:38:47.251Z,96033.79
2022-12-01T18:44:19.347Z,96030.48
2022-12-01T18:47:08.105Z,96037.41
2022-12-01T18:52:42.631Z,96038.21
2022-12-01T18:58:21.248Z,96031.81
2022-12-01T19:04:06.073Z,96026.03
2022-12-01T19:06:55.520Z,96025.18
2022-12-01T19:09:43.690Z,96026.23
2022-12-01T19:18:02.094Z,96029.50
2022-12-01T19:20:51.482Z,96030.32
2022-12-01T19:23:40.419Z,96023.47
2022-12-01T19:26:28.677Z,96024.55
2022-12-01T19:32:17.874Z,96030.08
2022-12-01T19:35:07.218Z,96025.77
2022-12-01T19:40:37.500Z,96026.00
2022-12-01T19:46:16.946Z,96023.67
2022-12-01T19:51:46.633Z,96025.38
2022-12-01T19:57:16.595Z,96030.92
2022-12-01T20:02:54.623Z,96032.50
2022-12-01T20:11:15.838Z,96038.81
2022-12-01T20:17:56.822Z,96037.35
2022-12-01T20:23:28.307Z,96028.25
2022-12-01T20:29:09.346Z,96033.55
2022-12-01T20:34:38.298Z,96037.72
2022-12-01T20:40:11.647Z,96037.06
2022-12-01T20:43:00.780Z,96037.38
2022-12-01T20:45:52.759Z,96034.61
2022-12-01T20:48:41.285Z,96034.02
2022-12-01T20:51:31.330Z,96037.16
2022-12-01T20:57:05.986Z,96035.16
2022-12-01T20:59:54.177Z,96035.19
2022-12-01T21:05:41.475Z,96033.43
2022-12-01T21:14:10.386Z,96032.09
2022-12-01T21:19:46.774Z,96027.17
2022-12-01T21:22:37.814Z,96023.59
2022-12-01T21:28:19.917Z,96018.86
2022-12-01T21:31:14.357Z,96017.22
2022-12-01T21:34:24.101Z,96015.16
2022-12-01T21:40:03.019Z,96009.92
2022-12-01T21:45:42.749Z,96012.56
2022-12-01T21:51:25.416Z,96025.66
2022-12-01T21:57:00.218Z,96018.19
2022-12-01T21:59:49.561Z,96026.03
2022-12-01T22:05:35.587Z,96011.13
2022-12-01T22:08:27.322Z,96016.70
2022-12-01T22:16:51.274Z,96013.35
2022-12-01T22:22:24.876Z,96010.65
2022-12-01T22:28:04.176Z,95993.14
2022-12-01T22:33:32.431Z,95995.58
2022-12-01T22:39:16.306Z,95994.90
2022-12-01T22:44:52.972Z,95996.58
2022-12-01T22:50:44.331Z,95992.53
2022-12-01T22:59:16.739Z,95994.73
2022-12-01T23:02:15.451Z,95999.03
2022-12-01T23:07:56.288Z,95997.34
2022-12-01T23:10:44.732Z,95995.88
2022-12-01T23:16:20.359Z,95990.34
2022-12-01T23:19:10.248Z,95996.95
2022-12-01T23:22:06.356Z,95988.84
2022-12-01T23:24:56.033Z,95996.17
2022-12-01T23:30:35.009Z,95995.97
2022-12-01T23:36:15.299Z,95986.69
2022-12-01T23:41:53.242Z,95992.02
2022-12-01T23:47:28.526Z,95975.46
2022-12-01T23:53:11.720Z,95968.66
2022-12-01T23:58:47.057Z,95958.11
